• Join FlightAware (Why Join?)
  • Login
  • US Flag 
12:27AM EDT


 

Airport Tracker/Info


-or-


 

Live Flight TrackerFlight Track Log ✈ RPA3392 ✈ 25-Aug-2013 ✈ KMSP - KDCA

Flight Track Log - Related Links

Times and Time Zones

All times are in EDT time to prevent confusion due to time zone crossing. See the RPA3392 flight status page for this flight to view local times or setup timezone preferences in your user account.

Time Position Orientation Groundspeed Altitude Reporting Facility
EDT Latitude Longitude Course Direction KTS MPH feet Rate Location/Type
05:53PM 44.8500 -93.2167 117° Southeast 164 189 2,200  Level Minneapolis TRACON
05:54PM 44.8314 -93.1758 123° Southeast 185 213 2,800 1,260 Climbing Minneapolis Center
05:55PM 44.7642 -92.7925 111° Southeast  Level Estimated
05:55PM 44.8000 -93.0900 117° Southeast 244 281 4,500  Level Minneapolis Center
05:56PM 44.7246 -92.6498 113° Southeast  Level Estimated
05:56PM 44.7667 -92.9847 114° Southeast 289 333 7,000  Level Minneapolis Center
05:57PM 44.6666 -92.5203 122° Southeast  Level FlightAware Approximate
05:57PM 44.7306 -92.8494 111° Southeast 306 352 10,100  Level Minneapolis Center
05:58PM 44.6141 -92.3763 117° Southeast  Level FlightAware Approximate
05:58PM 44.6975 -92.7272 111° Southeast 337 388 11,800  Level Minneapolis Center
05:59PM 44.6628 -92.5989 111° Southeast 349 402 14,100 2,040 Climbing Minneapolis Center
06:00PM 44.6278 -92.4708 111° Southeast 352 405 16,100 1,740 Climbing Minneapolis Center
06:01PM 44.5903 -92.3381 112° Southeast 363 418 17,800 1,560 Climbing Minneapolis Center
06:02PM 44.5508 -92.2000 112° Southeast 376 433 19,400 1,740 Climbing Minneapolis Center
06:03PM 44.4725 -92.0492 126° Southeast 397 457 21,400 1,740 Climbing Minneapolis Center
06:04PM 44.3936 -91.8950 126° Southeast 405 466 23,400 1,500 Climbing Minneapolis Center
06:05PM 44.3342 -91.7586 121° Southeast 412 474 24,800 1,260 Climbing Minneapolis Center
06:06PM 44.2803 -91.6144 118° Southeast 418 481 26,100 1,140 Climbing Minneapolis Center
06:07PM 44.2247 -91.4689 118° Southeast 423 487 27,200 1,080 Climbing Minneapolis Center
06:08PM 44.1592 -91.2983 118° Southeast 433 498 28,400 1,020 Climbing Minneapolis Center
06:09PM 44.1006 -91.1481 118° Southeast 441 507 29,400 900 Climbing Minneapolis Center
06:10PM 44.0422 -90.9947 118° Southeast 447 514 30,300 780 Climbing Minneapolis Center
06:11PM 43.9925 -90.8706 119° Southeast 456 525 31,000 720 Climbing Minneapolis Center
06:12PM 43.9194 -90.6831 118° Southeast 462 532 31,900 960 Climbing Minneapolis Center
06:13PM 43.8453 -90.4956 119° Southeast 464 534 33,100 960 Climbing Chicago Center
06:15PM 43.7836 -90.3419 119° Southeast 460 529 34,000 720 Climbing Chicago Center
06:16PM 43.7189 -90.1769 118° Southeast 455 524 34,700 480 Climbing Chicago Center
06:17PM 43.6458 -89.9969 119° Southeast 461 531 35,000 120 Climbing Chicago Center
06:18PM 43.5814 -89.8369 119° Southeast 472 543 35,000  Level Chicago Center
06:19PM 43.5225 -89.6683 116° Southeast 488 562 35,000  Level Chicago Center
06:20PM 43.4739 -89.4944 111° Southeast 486 559 35,000  Level Chicago Center
06:21PM 43.4244 -89.3233 112° Southeast 484 557 35,000  Level Chicago Center
06:22PM 43.3658 -89.1239 112° Southeast 484 557 35,000  Level Chicago Center
06:23PM 43.3156 -88.9525 112° Southeast 486 559 35,000  Level Chicago Center
06:24PM 43.2650 -88.7853 112° Southeast 481 554 35,000  Level Chicago Center
06:25PM 43.2144 -88.6169 112° Southeast 483 556 35,000  Level Chicago Center
06:26PM 43.1558 -88.4203 112° Southeast 484 557 35,000  Level Chicago Center
06:27PM 43.1139 -88.2503 109° East 478 550 35,000  Level Chicago Center
06:28PM 43.0942 -88.0719 99° East 475 547 35,000  Level Chicago Center
06:29PM 43.0742 -87.8917 99° East 480 552 35,000  Level Chicago Center
06:30PM 43.0553 -87.7122 98° East 479 551 35,000  Level Chicago Center
06:31PM 43.0306 -87.5036 99° East 478 550 35,000  Level Chicago Center
06:32PM 43.0092 -87.3164 99° East 480 552 35,000  Level Chicago Center
06:33PM 42.9883 -87.1386 99° East 477 549 35,000  Level Chicago Center
06:34PM 42.9689 -86.9611 98° East 475 547 35,000  Level Chicago Center
06:35PM 42.9481 -86.7822 99° East 480 552 35,000  Level Chicago Center
06:36PM 42.9256 -86.6058 100° East 476 548 35,000  Level Chicago Center
06:37PM 42.9042 -86.4272 99° East 480 552 35,000  Level Chicago Center
06:38PM 42.8756 -86.2136 100° East 483 556 35,000  Level Chicago Center
06:39PM 42.8539 -86.0339 99° East 490 564 35,000  Level Chicago Center
06:40PM 42.8300 -85.8533 100° East 493 567 35,000  Level Chicago Center
06:41PM 42.8097 -85.6747 99° East 488 562 35,000  Level Chicago Center
06:42PM 42.7742 -85.4608 103° East 487 560 35,000  Level Chicago Center
06:43PM 42.7156 -85.2928 115° Southeast 491 565 35,000  Level Chicago Center
06:45PM 42.6583 -85.1264 115° Southeast 489 563 35,000  Level Chicago Center
06:46PM 42.5992 -84.9622 116° Southeast 486 559 35,000  Level Chicago Center
06:47PM 42.5408 -84.7989 116° Southeast 484 557 35,000  Level Chicago Center
06:48PM 42.4692 -84.6014 116° Southeast 488 562 35,000  Level Chicago Center
06:49PM 42.4108 -84.4381 116° Southeast 484 557 35,000  Level Chicago Center
06:50PM 42.3517 -84.2747 116° Southeast 484 557 35,000  Level Chicago Center
06:51PM 42.2917 -84.1111 116° Southeast 486 559 35,000  Level Chicago Center
06:52PM 42.2328 -83.9486 116° Southeast 483 556 35,000  Level Chicago Center
06:53PM 42.1728 -83.7886 117° Southeast 480 552 35,000  Level Chicago Center
06:54PM 42.0839 -83.5558 117° Southeast 482 555 35,000  Level Cleveland Center
06:55PM 42.0153 -83.3978 120° Southeast 488 562 35,000  Level Cleveland Center
06:56PM 41.9381 -83.2500 125° Southeast 480 552 35,000  Level Cleveland Center
06:57PM 41.8331 -83.0983 133° Southeast 486 559 35,000  Level Cleveland Center
06:58PM 41.7392 -82.9739 135° Southeast 478 550 35,000  Level Cleveland Center
06:59PM 41.6406 -82.8444 136° Southeast 478 550 35,000  Level Cleveland Center
07:00PM 41.5428 -82.7200 136° Southeast 482 555 35,000  Level Cleveland Center
07:01PM 41.4464 -82.5950 136° Southeast 482 555 35,000  Level Cleveland Center
07:02PM 41.3506 -82.4722 136° Southeast 476 548 35,000  Level Cleveland Center
07:03PM 41.2386 -82.3308 136° Southeast 476 548 35,000  Level Cleveland Center
07:05PM 41.1444 -82.2117 136° Southeast 471 542 35,000  Level Cleveland Center
07:06PM 41.0492 -82.0919 137° Southeast 471 542 35,000  Level Cleveland Center
07:07PM 40.9542 -81.9717 136° Southeast 472 543 35,000  Level Cleveland Center
07:08PM 40.8597 -81.8517 136° Southeast 471 542 35,000  Level Cleveland Center
07:09PM 40.7489 -81.7125 136° Southeast 469 540 35,000  Level Cleveland Center
07:10PM 40.6528 -81.5947 137° Southeast 470 541 35,000  Level Cleveland Center
07:11PM 40.5569 -81.4761 137° Southeast 470 541 35,000  Level Cleveland Center
07:12PM 40.4586 -81.3536 137° Southeast 470 541 35,000  Level Cleveland Center
07:13PM 40.3678 -81.2325 135° Southeast 469 540 35,000  Level Cleveland Center
07:14PM 40.2778 -81.1119 134° Southeast 466 536 35,000  Level Cleveland Center
07:15PM 40.1881 -80.9903 134° Southeast 468 539 35,000  Level Cleveland Center
07:16PM 40.0792 -80.8475 135° Southeast 467 537 35,000  Level Cleveland Center
07:17PM 39.9883 -80.7267 134° Southeast 470 541 35,000  Level Cleveland Center
07:18PM 39.8961 -80.6053 135° Southeast 473 544 35,000  Level Cleveland Center
07:19PM 39.8050 -80.4831 134° Southeast 475 547 35,000  Level Cleveland Center
07:20PM 39.7122 -80.3633 135° Southeast 474 545 35,000  Level Cleveland Center
07:21PM 39.6022 -80.2197 135° Southeast 471 542 35,000  Level Cleveland Center
07:22PM 39.5603 -80.1650 135° Southeast 470 541 35,000 -120 Level Washington Center
07:22PM 39.5103 -80.1011 135° Southeast 471 542 34,900 -1,260 Descending Cleveland Center
07:23PM 39.4169 -79.9808 135° Southeast 474 545 33,100 -1,800 Descending Cleveland Center
07:24PM 39.3239 -79.8572 134° Southeast 481 554 31,200 -1,020 Descending Cleveland Center
07:25PM 39.2844 -79.7044 108° East 460 529 31,000 -840 Descending Cleveland Center
07:26PM 39.2697 -79.5086 95° East 459 528 29,500 -1,560 Descending Cleveland Center
07:27PM 39.2575 -79.3508 96° East 448 516 27,800 -1,620 Descending Cleveland Center
07:28PM 39.2447 -79.2000 96° East 435 501 26,200 -1,620 Descending Cleveland Center
07:29PM 39.2317 -79.0500 96° East 424 488 24,500 -1,620 Descending Cleveland Center
07:30PM 39.2178 -78.9025 97° East 418 481 22,900 -1,740 Descending Cleveland Center
07:31PM 39.2003 -78.7294 97° East 408 470 21,000 -1,620 Descending Cleveland Center
07:33PM 39.1867 -78.5856 97° East 408 470 19,400 -1,500 Descending Washington Center
07:34PM 39.1717 -78.4403 98° East 408 470 17,900 -1,560 Descending Washington Center
07:35PM 39.1475 -78.3028 103° East 403 464 16,400 -1,320 Descending Washington Center
07:36PM 39.1150 -78.1786 109° East 381 438 15,400 -1,140 Descending Washington Center
07:37PM 39.0861 -78.0572 107° East 368 423 14,100 -1,380 Descending Washington Center
07:38PM 39.0511 -77.9278 109° East 363 418 12,700 -1,320 Descending Washington Center
07:39PM 39.0261 -77.8200 107° East 332 382 11,500 -1,200 Descending Washington Center
07:40PM 39.0028 -77.7286 108° East 309 356 10,400 -1,200 Descending Washington Center
07:41PM 38.9733 -77.6181 109° East 296 341 9,100 -1,260 Descending Washington Center
07:42PM 38.9458 -77.5186 110° East 290 334 8,000 -1,380 Descending Washington Center
07:43PM 38.9600 -77.4256 79° East 272 313 6,400 -1,260 Descending Washington Center
07:44PM 38.9667 -77.3000 86° East 244 281 5,000 -1,080 Descending Potomac TRACON
07:45PM 38.9667 -77.2167 90° East 218 251 3,900 -1,260 Descending Potomac TRACON
07:46PM 38.9500 -77.1500 108° East 216 249 2,500 -1,320 Descending Potomac TRACON
07:47PM 38.9167 -77.1000 131° Southeast 186 214 1,300 -960 Descending Potomac TRACON
07:48PM 38.8833 -77.0500 131° Southeast 135 155 600 -720 Descending Potomac TRACON